Time;durP1;ratioP1;P1;durP2;ratioP2;P2;SDS_P1;SDS_P2;PMS_P1;PMS_P2;Temp;Humidity;BMP_temperature;BMP_pressure;BME280_temperature;BME280_humidity;BME280_pressure;Samples;Min_cycle;Max_cycle;Signal;HPM_P1;HPM_P2
2022/11/01 00:00:08;;;;;;;9.43;4.70;;;;;;;15.82;100.00;100348.66;698210;28;1296;-66
2022/11/01 00:00:32;;;;;;;10.80;4.70;;;;;;;15.88;100.00;100344.94;697709;28;1169;-66
2022/11/01 00:00:53;;;;;;;8.95;4.68;;;;;;;15.87;100.00;100346.72;698295;28;4271;-66
2022/11/01 00:01:13;;;;;;;9.63;4.50;;;;;;;15.81;100.00;100345.16;697471;28;1275;-65
2022/11/01 00:01:34;;;;;;;9.33;4.60;;;;;;;15.93;100.00;100340.41;698432;28;1319;-66
2022/11/01 00:01:54;;;;;;;7.93;4.53;;;;;;;16.02;100.00;100334.84;698495;28;1280;-65
2022/11/01 00:02:15;;;;;;;10.13;4.60;;;;;;;16.04;100.00;100338.28;698003;28;1315;-65
2022/11/01 00:02:35;;;;;;;10.77;4.27;;;;;;;16.11;100.00;100337.16;698675;28;1440;-65
2022/11/01 00:02:56;;;;;;;8.75;4.60;;;;;;;16.07;100.00;100332.03;698610;28;1355;-65
2022/11/01 00:03:16;;;;;;;7.57;4.50;;;;;;;16.12;100.00;100338.03;697074;28;1269;-66
2022/11/01 00:03:36;;;;;;;8.60;4.50;;;;;;;16.02;100.00;100333.97;695563;28;1333;-66
2022/11/01 00:03:57;;;;;;;10.03;4.90;;;;;;;15.98;100.00;100331.44;694616;28;4353;-66
2022/11/01 00:04:18;;;;;;;9.40;4.90;;;;;;;15.92;100.00;100333.41;695271;28;1460;-66
2022/11/01 00:04:39;;;;;;;8.60;4.80;;;;;;;15.96;100.00;100329.75;695971;28;1405;-66
2022/11/01 00:04:59;;;;;;;7.82;4.68;;;;;;;15.94;100.00;100336.84;696549;28;1511;-66
2022/11/01 00:05:20;;;;;;;10.20;5.10;;;;;;;15.89;100.00;100333.50;696248;28;1328;-67
2022/11/01 00:05:40;;;;;;;10.70;5.03;;;;;;;15.88;100.00;100332.66;695206;28;2661;-67
2022/11/01 00:06:01;;;;;;;10.10;5.07;;;;;;;15.85;100.00;100329.25;699205;28;1767;-67
2022/11/01 00:06:21;;;;;;;10.17;5.10;;;;;;;15.84;100.00;100328.38;698733;28;1375;-66
2022/11/01 00:06:42;;;;;;;8.63;4.78;;;;;;;15.78;100.00;100331.16;698026;28;4293;-67
2022/11/01 00:07:03;;;;;;;10.38;4.80;;;;;;;15.73;100.00;100338.34;698439;28;1134;-67
2022/11/01 00:07:23;;;;;;;9.68;4.60;;;;;;;15.70;100.00;100338.44;697243;28;1132;-66
2022/11/01 00:07:44;;;;;;;8.80;4.60;;;;;;;15.71;100.00;100340.19;698002;28;1410;-67
2022/11/01 00:08:04;;;;;;;9.23;4.85;;;;;;;15.68;100.00;100329.75;698641;28;1291;-67
2022/11/01 00:08:25;;;;;;;8.27;4.87;;;;;;;15.68;100.00;100335.00;698057;28;1140;-66
2022/11/01 00:08:45;;;;;;;9.30;4.70;;;;;;;15.66;100.00;100333.28;698264;28;1303;-65
2022/11/01 00:09:06;;;;;;;11.50;5.00;;;;;;;15.65;100.00;100333.34;698570;28;1303;-66
2022/11/01 00:09:26;;;;;;;8.95;4.45;;;;;;;15.64;100.00;100335.09;698282;28;1213;-65
2022/11/01 00:09:46;;;;;;;9.33;4.73;;;;;;;15.64;100.00;100331.59;697983;28;4919;-67
2022/11/01 00:10:08;;;;;;;11.75;5.20;;;;;;;15.73;100.00;100331.31;698073;28;1074;-67
2022/11/01 00:10:28;;;;;;;10.40;4.65;;;;;;;15.69;100.00;100336.72;698053;28;1264;-67
2022/11/01 00:10:49;;;;;;;10.95;4.82;;;;;;;15.62;100.00;100326.38;697637;28;1296;-67
2022/11/01 00:11:13;;;;;;;8.90;4.67;;;;;;;15.57;100.00;100327.44;697328;28;1303;-67
2022/11/01 00:11:34;;;;;;;11.18;4.93;;;;;;;15.52;100.00;100330.22;698128;28;1236;-67
2022/11/01 00:11:54;;;;;;;9.80;4.80;;;;;;;15.47;100.00;100327.72;698315;28;1209;-67
2022/11/01 00:12:15;;;;;;;9.40;4.70;;;;;;;15.45;100.00;100320.75;698157;28;1284;-67
2022/11/01 00:12:35;;;;;;;8.77;4.87;;;;;;;15.44;100.00;100321.69;698453;28;1279;-67
2022/11/01 00:12:55;;;;;;;9.10;5.07;;;;;;;15.44;100.00;100325.19;698185;28;4260;-66
2022/11/01 00:13:15;;;;;;;10.98;5.10;;;;;;;15.46;100.00;100314.59;698197;28;1999;-65
2022/11/01 00:13:36;;;;;;;9.87;4.80;;;;;;;15.55;100.00;100323.97;697485;28;1285;-67
2022/11/01 00:13:56;;;;;;;8.77;4.72;;;;;;;15.52;100.00;100314.41;698420;28;1462;-66
2022/11/01 00:14:18;;;;;;;10.73;4.70;;;;;;;15.47;100.00;100316.31;697772;28;1413;-66
2022/11/01 00:14:38;;;;;;;9.82;5.03;;;;;;;15.48;100.00;100313.63;696854;28;1222;-67
2022/11/01 00:14:59;;;;;;;9.07;5.00;;;;;;;15.53;100.00;100310.84;698638;28;1201;-66
2022/11/01 00:15:19;;;;;;;10.25;5.00;;;;;;;15.56;100.00;100309.91;697793;28;1455;-67
2022/11/01 00:15:39;;;;;;;10.27;4.90;;;;;;;15.49;100.00;100306.59;697617;28;4384;-67
2022/11/01 00:16:00;;;;;;;9.63;4.90;;;;;;;15.59;100.00;100310.69;698302;28;1384;-67
2022/11/01 00:16:21;;;;;;;10.88;5.15;;;;;;;15.60;100.00;100312.41;697643;28;1264;-67
2022/11/01 00:16:42;;;;;;;10.65;4.55;;;;;;;15.63;100.00;100306.16;696514;28;1503;-67
2022/11/01 00:17:02;;;;;;;10.48;4.93;;;;;;;15.71;100.00;100312.06;698435;28;1360;-67
2022/11/01 00:17:23;;;;;;;9.97;4.97;;;;;;;15.69;100.00;100305.09;698168;28;1293;-67
2022/11/01 00:17:43;;;;;;;11.25;4.90;;;;;;;15.72;100.00;100305.03;698753;28;1353;-67
2022/11/01 00:18:03;;;;;;;9.87;5.00;;;;;;;15.69;100.00;100313.00;698637;28;1185;-66
2022/11/01 00:18:24;;;;;;;8.87;4.70;;;;;;;15.62;100.00;100310.56;697981;28;1205;-67
2022/11/01 00:18:45;;;;;;;9.35;5.00;;;;;;;15.62;100.00;100304.47;698090;28;4380;-67
2022/11/01 00:19:06;;;;;;;10.68;5.30;;;;;;;15.59;100.00;100301.91;698003;28;1054;-67
2022/11/01 00:19:26;;;;;;;10.20;5.00;;;;;;;15.62;100.00;100292.13;697752;28;1121;-67
2022/11/01 00:19:46;;;;;;;9.80;4.87;;;;;;;15.57;100.00;100290.56;698555;28;1216;-67
2022/11/01 00:20:07;;;;;;;9.38;4.50;;;;;;;15.54;100.00;100295.94;697599;28;3644;-67
2022/11/01 00:20:28;;;;;;;9.35;4.93;;;;;;;15.48;100.00;100295.19;697622;28;1293;-67
2022/11/01 00:20:48;;;;;;;10.10;5.00;;;;;;;15.46;100.00;100304.06;698543;28;1038;-67
2022/11/01 00:21:09;;;;;;;9.90;4.90;;;;;;;15.41;100.00;100301.56;700502;28;1219;-67
2022/11/01 00:21:30;;;;;;;9.55;4.65;;;;;;;15.36;100.00;100308.75;700926;28;1280;-66
2022/11/01 00:21:50;;;;;;;10.17;5.20;;;;;;;15.34;100.00;100305.31;700865;28;4681;-66
2022/11/01 00:22:10;;;;;;;9.30;4.97;;;;;;;15.37;100.00;100305.22;700121;28;1217;-67
2022/11/01 00:22:31;;;;;;;11.53;4.80;;;;;;;15.37;100.00;100302.56;699627;28;1315;-65
2022/11/01 00:22:51;;;;;;;9.47;4.77;;;;;;;15.33;100.00;100293.88;699995;28;1200;-66
2022/11/01 00:23:12;;;;;;;10.00;5.13;;;;;;;15.30;100.00;100288.72;698110;28;1154;-66
2022/11/01 00:23:32;;;;;;;9.93;5.20;;;;;;;15.28;100.00;100289.69;697481;28;1356;-66
2022/11/01 00:23:52;;;;;;;10.10;4.90;;;;;;;15.26;100.00;100286.25;698788;28;1240;-66
2022/11/01 00:24:13;;;;;;;10.67;5.13;;;;;;;15.17;100.00;100281.25;698294;28;1326;-67
2022/11/01 00:24:33;;;;;;;8.32;4.90;;;;;;;15.09;100.00;100279.72;697222;28;1248;-66
2022/11/01 00:24:54;;;;;;;9.20;4.87;;;;;;;15.04;100.00;100292.13;697859;28;4474;-67
2022/11/01 00:25:17;;;;;;;10.30;4.90;;;;;;;15.02;100.00;100288.66;695379;28;1245;-67
2022/11/01 00:25:38;;;;;;;8.48;4.68;;;;;;;15.02;100.00;100293.09;695545;28;1349;-66
2022/11/01 00:25:59;;;;;;;8.80;4.80;;;;;;;15.01;100.00;100286.97;695723;28;1368;-67
2022/11/01 00:26:21;;;;;;;8.50;4.82;;;;;;;15.02;100.00;100285.19;694809;28;1374;-67
2022/11/01 00:26:43;;;;;;;11.23;5.03;;;;;;;15.01;100.00;100286.09;694096;28;1333;-67
2022/11/01 00:27:03;;;;;;;10.18;5.00;;;;;;;14.97;100.00;100282.69;697739;28;1300;-67
2022/11/01 00:27:23;;;;;;;11.17;5.27;;;;;;;15.00;100.00;100279.13;698973;28;1224;-67
2022/11/01 00:27:44;;;;;;;8.77;5.13;;;;;;;15.00;100.00;100279.97;698455;28;4380;-67
2022/11/01 00:28:04;;;;;;;8.93;4.97;;;;;;;15.01;100.00;100283.44;699772;28;1142;-67
2022/11/01 00:28:26;;;;;;;8.43;4.80;;;;;;;15.01;100.00;100280.81;698821;28;1205;-67
2022/11/01 00:28:47;;;;;;;11.25;4.88;;;;;;;15.06;100.00;100278.91;700848;28;1240;-68
2022/11/01 00:29:08;;;;;;;9.45;4.75;;;;;;;15.05;100.00;100278.06;698023;28;1375;-68
2022/11/01 00:29:28;;;;;;;9.83;4.70;;;;;;;15.06;100.00;100278.91;698199;28;1296;-67
2022/11/01 00:29:48;;;;;;;10.53;4.90;;;;;;;15.02;100.00;100275.50;698300;28;1172;-67
2022/11/01 00:30:09;;;;;;;8.80;5.03;;;;;;;15.00;100.00;100268.59;695772;28;1277;-67
2022/11/01 00:30:30;;;;;;;9.02;4.97;;;;;;;15.03;100.00;100266.72;692643;28;1243;-67
2022/11/01 00:30:54;;;;;;;10.30;5.20;;;;;;;15.05;100.00;100266.66;692250;28;4300;-67
2022/11/01 00:31:16;;;;;;;9.82;4.60;;;;;;;15.03;100.00;100274.59;694422;28;1407;-66
2022/11/01 00:31:36;;;;;;;10.23;4.93;;;;;;;15.12;100.00;100274.34;695474;28;1177;-66
2022/11/01 00:31:58;;;;;;;10.80;5.40;;;;;;;15.17;100.00;100268.94;693965;28;1285;-67
2022/11/01 00:32:18;;;;;;;10.65;5.07;;;;;;;15.14;100.00;100275.16;696544;28;1275;-67
2022/11/01 00:32:39;;;;;;;9.13;4.97;;;;;;;15.10;100.00;100280.56;695726;28;1601;-66
2022/11/01 00:32:59;;;;;;;8.93;4.95;;;;;;;15.07;100.00;100273.59;695532;28;1448;-66
2022/11/01 00:33:19;;;;;;;10.93;4.97;;;;;;;15.04;100.00;100273.72;694430;28;1914;-66
2022/11/01 00:33:40;;;;;;;10.40;4.90;;;;;;;15.02;100.00;100277.28;695504;28;4560;-67
2022/11/01 00:34:04;;;;;;;11.25;5.10;;;;;;;14.97;100.00;100275.66;698229;28;1828;-66
2022/11/01 00:34:24;;;;;;;7.75;4.93;;;;;;;14.93;100.00;100274.00;697566;28;1170;-66
2022/11/01 00:34:47;;;;;;;9.70;5.07;;;;;;;14.94;100.00;100269.63;700565;28;1355;-67
2022/11/01 00:35:08;;;;;;;10.82;5.20;;;;;;;14.92;100.00;100268.81;700696;28;1272;-67
2022/11/01 00:35:30;;;;;;;10.93;5.30;;;;;;;14.84;100.00;100273.41;701284;28;1260;-66
2022/11/01 00:35:51;;;;;;;9.50;5.25;;;;;;;14.73;100.00;100265.81;701052;28;1304;-67
2022/11/01 00:36:11;;;;;;;8.73;5.38;;;;;;;14.70;100.00;100271.19;697885;28;1234;-66
2022/11/01 00:36:33;;;;;;;10.93;5.00;;;;;;;14.71;100.00;100265.03;697960;28;1335;-67
2022/11/01 00:36:53;;;;;;;8.98;4.95;;;;;;;14.70;100.00;100266.78;697057;28;4280;-67
2022/11/01 00:37:14;;;;;;;8.97;4.80;;;;;;;14.72;100.00;100272.03;698119;28;1395;-67
2022/11/01 00:37:34;;;;;;;8.70;4.80;;;;;;;14.66;100.00;100264.28;698596;28;1585;-66
2022/11/01 00:37:54;;;;;;;8.80;5.22;;;;;;;14.62;100.00;100264.38;698417;28;1268;-67
2022/11/01 00:38:16;;;;;;;11.00;5.30;;;;;;;14.58;100.00;100265.34;697115;28;1189;-67
2022/11/01 00:38:36;;;;;;;11.13;4.97;;;;;;;14.53;100.00;100258.47;698706;28;1252;-67
2022/11/01 00:38:57;;;;;;;10.60;5.32;;;;;;;14.51;100.00;100257.63;698357;28;4980;-67
2022/11/01 00:39:17;;;;;;;9.93;5.53;;;;;;;14.56;100.00;100264.50;697616;28;1235;-67
2022/11/01 00:39:37;;;;;;;9.85;5.20;;;;;;;14.61;100.00;100253.88;698574;28;1696;-67
2022/11/01 00:39:58;;;;;;;9.50;5.20;;;;;;;14.56;100.00;100256.59;696757;28;4378;-68
2022/11/01 00:40:18;;;;;;;9.10;4.80;;;;;;;14.56;100.00;100259.22;697316;28;1295;-67
2022/11/01 00:40:38;;;;;;;10.73;5.30;;;;;;;14.58;100.00;100257.44;698777;28;1418;-67
2022/11/01 00:41:02;;;;;;;9.57;5.30;;;;;;;14.79;100.00;100263.03;698535;28;1672;-68
2022/11/01 00:41:23;;;;;;;8.68;5.00;;;;;;;14.82;100.00;100266.44;696017;28;1138;-67
2022/11/01 00:41:43;;;;;;;7.68;4.78;;;;;;;14.84;100.00;100262.91;698175;28;1158;-68
2022/11/01 00:42:03;;;;;;;11.60;5.40;;;;;;;14.85;100.00;100264.63;698781;28;1427;-68
2022/11/01 00:42:24;;;;;;;11.32;5.30;;;;;;;14.86;100.00;100258.47;697526;28;1165;-68
2022/11/01 00:42:44;;;;;;;11.37;5.20;;;;;;;14.87;100.00;100258.41;698295;28;4316;-68
2022/11/01 00:43:05;;;;;;;10.53;5.20;;;;;;;14.82;100.00;100260.31;698250;28;1478;-68
2022/11/01 00:43:25;;;;;;;9.05;5.20;;;;;;;14.80;100.00;100259.47;696561;28;1401;-68
2022/11/01 00:43:45;;;;;;;9.23;4.87;;;;;;;14.77;100.00;100255.19;698093;28;1256;-68
2022/11/01 00:44:06;;;;;;;10.27;4.90;;;;;;;14.70;100.00;100250.13;698422;28;1699;-68
2022/11/01 00:44:26;;;;;;;9.63;5.20;;;;;;;14.68;100.00;100251.97;697771;28;1236;-68
2022/11/01 00:44:47;;;;;;;9.63;5.05;;;;;;;14.70;100.00;100261.50;698486;28;1569;-68
2022/11/01 00:45:07;;;;;;;8.40;4.70;;;;;;;14.72;100.00;100259.72;697424;28;1305;-68
2022/11/01 00:45:27;;;;;;;9.18;5.50;;;;;;;14.70;100.00;100251.00;695393;28;1296;-69
2022/11/01 00:45:48;;;;;;;9.90;4.97;;;;;;;14.73;100.00;100256.19;695287;28;4444;-68
2022/11/01 00:46:08;;;;;;;10.77;4.90;;;;;;;14.75;100.00;100261.41;695326;28;1452;-68
2022/11/01 00:46:29;;;;;;;10.55;5.28;;;;;;;14.77;100.00;100262.19;695499;28;1245;-67
2022/11/01 00:46:50;;;;;;;11.40;5.35;;;;;;;14.73;100.00;100261.44;698343;28;1508;-68
2022/11/01 00:47:10;;;;;;;11.50;5.33;;;;;;;14.74;100.00;100262.28;698080;28;1587;-68
2022/11/01 00:47:30;;;;;;;8.82;4.85;;;;;;;14.71;100.00;100259.75;699388;28;1296;-68
2022/11/01 00:47:51;;;;;;;9.77;5.23;;;;;;;14.68;100.00;100263.34;701279;28;1339;-68
2022/11/01 00:48:12;;;;;;;10.27;5.20;;;;;;;14.72;100.00;100269.38;700923;28;1727;-67
2022/11/01 00:48:32;;;;;;;8.23;4.88;;;;;;;14.75;100.00;100262.25;700508;28;1233;-68
2022/11/01 00:48:53;;;;;;;9.60;5.07;;;;;;;14.80;100.00;100264.75;697910;28;4410;-67
2022/11/01 00:49:13;;;;;;;11.18;5.72;;;;;;;14.73;100.00;100276.34;697462;28;1530;-68
2022/11/01 00:49:33;;;;;;;10.57;5.57;;;;;;;14.67;100.00;100266.88;698216;28;1424;-67
2022/11/01 00:49:54;;;;;;;11.27;5.17;;;;;;;14.67;100.00;100268.66;698503;28;1257;-68
2022/11/01 00:50:14;;;;;;;11.05;5.10;;;;;;;14.66;100.00;100275.66;697959;28;1298;-67
2022/11/01 00:50:34;;;;;;;11.27;5.10;;;;;;;14.63;100.00;100268.75;698403;28;1452;-67
2022/11/01 00:50:55;;;;;;;10.10;5.03;;;;;;;14.56;100.00;100274.16;698662;28;1323;-67
2022/11/01 00:51:15;;;;;;;10.23;5.70;;;;;;;14.54;100.00;100271.59;697837;28;1241;-68
2022/11/01 00:51:36;;;;;;;9.43;5.27;;;;;;;14.59;100.00;100269.69;697962;28;1548;-67
2022/11/01 00:51:56;;;;;;;9.85;5.40;;;;;;;14.55;100.00;100273.31;697744;28;4401;-67
2022/11/01 00:52:16;;;;;;;8.33;5.40;;;;;;;14.52;100.00;100277.78;698208;28;1411;-67
2022/11/01 00:52:37;;;;;;;10.15;5.20;;;;;;;14.44;100.00;100267.47;698458;28;1328;-67
2022/11/01 00:52:57;;;;;;;11.00;5.60;;;;;;;14.41;100.00;100271.06;698392;28;1296;-68
2022/11/01 00:53:18;;;;;;;10.23;5.57;;;;;;;14.40;100.00;100274.59;697999;28;1964;-68
2022/11/01 00:53:38;;;;;;;10.17;5.70;;;;;;;14.39;100.00;100269.38;697579;28;1545;-67
2022/11/01 00:53:58;;;;;;;10.03;5.73;;;;;;;14.38;100.00;100273.75;698754;28;1244;-67
2022/11/01 00:54:18;;;;;;;10.30;5.32;;;;;;;14.42;100.00;100272.75;697980;28;1428;-68
2022/11/01 00:54:39;;;;;;;12.60;5.10;;;;;;;14.41;100.00;100271.06;697988;28;4826;-67
2022/11/01 00:54:59;;;;;;;11.70;5.07;;;;;;;14.40;100.00;100271.06;695563;28;1440;-68
2022/11/01 00:55:20;;;;;;;10.85;5.05;;;;;;;14.41;100.00;100271.06;695475;28;1153;-68
2022/11/01 00:55:40;;;;;;;10.23;5.10;;;;;;;14.46;100.00;100273.56;692709;28;1417;-68
2022/11/01 00:56:03;;;;;;;10.77;5.05;;;;;;;14.46;100.00;100273.56;692750;28;1434;-67
2022/11/01 00:56:23;;;;;;;10.88;5.43;;;;;;;14.43;100.00;100279.75;694691;28;1225;-68
2022/11/01 00:56:43;;;;;;;9.82;5.35;;;;;;;14.42;100.00;100280.66;695703;28;789;-68
2022/11/01 00:57:04;;;;;;;9.53;5.10;;;;;;;14.46;100.00;100281.44;698134;28;1146;-68
2022/11/01 00:57:24;;;;;;;11.43;4.93;;;;;;;14.46;100.00;100278.81;698158;28;1278;-68
2022/11/01 00:57:45;;;;;;;9.25;4.93;;;;;;;14.47;100.00;100280.56;697174;28;4285;-67
2022/11/01 00:58:06;;;;;;;8.48;4.88;;;;;;;14.47;100.00;100283.19;697760;28;1620;-67
2022/11/01 00:58:26;;;;;;;9.93;5.13;;;;;;;14.47;100.00;100278.78;697895;28;1246;-67
2022/11/01 00:58:46;;;;;;;12.17;5.50;;;;;;;14.49;100.00;100281.34;697301;28;1535;-67
2022/11/01 00:59:07;;;;;;;10.13;5.07;;;;;;;14.53;100.00;100280.38;698226;28;1194;-68
2022/11/01 00:59:27;;;;;;;10.13;5.17;;;;;;;14.55;100.00;100282.94;698446;28;1479;-67
2022/11/01 00:59:47;;;;;;;10.10;5.10;;;;;;;14.56;100.00;100275.00;698370;28;1287;-67
2022/11/01 01:00:10;;;;;;;9.60;5.18;;;;;;;14.58;100.00;100278.47;697955;28;1260;-68
2022/11/01 01:00:30;;;;;;;10.95;5.30;;;;;;;14.64;100.00;100283.59;697882;28;1382;-67
2022/11/01 01:00:50;;;;;;;9.87;5.30;;;;;;;14.68;100.00;100283.53;698134;28;4330;-67
2022/11/01 01:01:11;;;;;;;9.97;4.90;;;;;;;14.70;100.00;100282.56;698236;28;1224;-68
2022/11/01 01:01:31;;;;;;;8.73;4.93;;;;;;;14.79;100.00;100281.47;698852;28;1525;-67
2022/11/01 01:01:51;;;;;;;10.53;5.10;;;;;;;14.88;100.00;100283.81;698411;28;1425;-67
2022/11/01 01:02:12;;;;;;;11.23;4.93;;;;;;;14.90;100.00;100279.38;694827;28;1438;-67
2022/11/01 01:02:32;;;;;;;8.73;4.67;;;;;;;14.88;100.00;100278.53;692818;28;1278;-67
2022/11/01 01:02:53;;;;;;;9.68;5.00;;;;;;;14.94;100.00;100283.66;692659;28;1239;-68
2022/11/01 01:03:13;;;;;;;10.53;4.90;;;;;;;14.95;100.00;100285.38;692627;28;1250;-67
2022/11/01 01:03:34;;;;;;;8.82;4.63;;;;;;;14.93;100.00;100286.31;689842;28;1388;-67
2022/11/01 01:03:54;;;;;;;7.65;4.72;;;;;;;14.92;100.00;100282.81;689059;28;4522;-68
2022/11/01 01:04:15;;;;;;;9.23;4.90;;;;;;;14.97;100.00;100280.91;691155;28;1125;-67
2022/11/01 01:04:40;;;;;;;10.70;5.10;;;;;;;14.97;100.00;100280.06;695768;28;1543;-67
2022/11/01 01:05:00;;;;;;;10.38;5.13;;;;;;;14.96;100.00;100287.06;695414;28;1293;-67
2022/11/01 01:05:21;;;;;;;11.60;4.97;;;;;;;15.01;100.00;100288.72;692211;28;1187;-68
2022/11/01 01:05:41;;;;;;;10.20;4.78;;;;;;;15.00;100.00;100285.22;691067;28;1515;-68
2022/11/01 01:06:01;;;;;;;9.27;4.90;;;;;;;15.03;100.00;100279.88;692595;28;1073;-67
2022/11/01 01:06:22;;;;;;;10.00;5.07;;;;;;;15.01;100.00;100279.06;689632;28;1358;-68
2022/11/01 01:06:42;;;;;;;9.68;4.63;;;;;;;15.04;100.00;100281.59;689078;28;4405;-67
2022/11/01 01:07:03;;;;;;;10.10;5.10;;;;;;;15.15;100.00;100284.78;690356;28;1431;-68
2022/11/01 01:07:23;;;;;;;12.53;5.17;;;;;;;15.28;100.00;100280.00;692778;28;1372;-68
2022/11/01 01:07:44;;;;;;;12.43;5.20;;;;;;;15.30;100.00;100278.19;692968;28;1239;-68
2022/11/01 01:08:04;;;;;;;10.00;5.07;;;;;;;15.35;100.00;100279.81;690113;28;1498;-67
2022/11/01 01:08:26;;;;;;;9.97;4.87;;;;;;;15.37;100.00;100283.25;689744;28;1110;-68
2022/11/01 01:08:46;;;;;;;10.93;5.38;;;;;;;15.31;100.00;100287.81;692691;28;1386;-68
2022/11/01 01:09:07;;;;;;;9.77;5.13;;;;;;;15.28;100.00;100287.91;690342;28;1510;-67
2022/11/01 01:09:27;;;;;;;9.80;4.80;;;;;;;15.30;100.00;100288.72;693164;28;1234;-67
2022/11/01 01:09:47;;;;;;;9.17;5.03;;;;;;;15.26;100.00;100286.25;695420;28;4307;-67
2022/11/01 01:10:08;;;;;;;10.63;5.07;;;;;;;15.26;100.00;100292.34;698194;28;1323;-68
2022/11/01 01:10:28;;;;;;;10.70;4.90;;;;;;;15.24;100.00;100294.16;693344;28;1428;-68
2022/11/01 01:10:49;;;;;;;14.15;4.90;;;;;;;15.22;100.00;100290.72;694078;28;1271;-67
2022/11/01 01:11:09;;;;;;;13.50;4.88;;;;;;;15.18;100.00;100288.25;698213;28;1273;-67
2022/11/01 01:11:30;;;;;;;10.63;5.20;;;;;;;15.17;100.00;100292.63;695680;28;1219;-68
2022/11/01 01:11:50;;;;;;;12.27;5.30;;;;;;;15.15;100.00;100294.47;695579;28;1420;-68
2022/11/01 01:12:11;;;;;;;9.00;5.00;;;;;;;15.13;100.00;100289.25;691604;28;1179;-67
2022/11/01 01:12:31;;;;;;;8.40;4.70;;;;;;;15.10;100.00;100288.47;695400;28;1435;-67
2022/11/01 01:12:51;;;;;;;9.30;4.70;;;;;;;15.08;100.00;100290.28;694958;28;4384;-67
2022/11/01 01:13:12;;;;;;;9.07;4.70;;;;;;;15.06;100.00;100289.44;695243;28;1954;-67
2022/11/01 01:13:32;;;;;;;10.43;5.18;;;;;;;15.05;100.00;100288.59;698437;28;1265;-68
2022/11/01 01:13:53;;;;;;;9.27;4.83;;;;;;;15.02;100.00;100286.03;698184;28;1277;-68
2022/11/01 01:14:13;;;;;;;8.80;4.70;;;;;;;15.04;100.00;100291.28;697461;28;1221;-67
2022/11/01 01:14:34;;;;;;;10.37;4.70;;;;;;;15.03;100.00;100289.56;697217;28;1351;-68
2022/11/01 01:14:55;;;;;;;9.90;5.13;;;;;;;15.02;100.00;100291.31;698436;28;1424;-68
2022/11/01 01:15:16;;;;;;;9.00;5.10;;;;;;;15.02;100.00;100293.09;698073;28;1302;-68
2022/11/01 01:15:38;;;;;;;10.20;5.18;;;;;;;15.03;100.00;100295.66;698483;28;1210;-68
2022/11/01 01:15:59;;;;;;;9.93;5.00;;;;;;;15.03;100.00;100295.66;695402;28;4307;-67
2022/11/01 01:16:19;;;;;;;9.43;5.10;;;;;;;15.06;100.00;100289.44;694887;28;1444;-68
2022/11/01 01:16:40;;;;;;;8.20;5.03;;;;;;;15.24;100.00;100286.25;696145;28;1404;-67
2022/11/01 01:17:01;;;;;;;9.70;5.18;;;;;;;15.37;100.00;100286.78;696884;28;1439;-68
2022/11/01 01:17:21;;;;;;;9.40;4.85;;;;;;;15.45;100.00;100286.53;695589;28;1465;-68
2022/11/01 01:17:42;;;;;;;8.53;4.60;;;;;;;15.48;100.00;100283.81;695996;28;1479;-68
2022/11/01 01:18:02;;;;;;;9.15;4.70;;;;;;;15.47;100.00;100287.34;698448;28;1408;-67
2022/11/01 01:18:23;;;;;;;11.10;4.88;;;;;;;15.42;100.00;100281.34;697725;28;1604;-67
2022/11/01 01:18:43;;;;;;;10.00;4.87;;;;;;;15.40;100.00;100284.03;697484;28;4341;-67
2022/11/01 01:19:04;;;;;;;7.93;4.93;;;;;;;15.42;100.00;100276.09;694143;28;1319;-67
2022/11/01 01:19:24;;;;;;;7.77;4.67;;;;;;;15.40;100.00;100278.78;695198;28;1252;-68
2022/11/01 01:19:45;;;;;;;8.55;4.60;;;;;;;15.44;100.00;100279.56;695854;28;1561;-67
2022/11/01 01:20:06;;;;;;;9.40;4.50;;;;;;;15.41;100.00;100275.22;695352;28;1550;-67
2022/11/01 01:20:27;;;;;;;11.50;4.97;;;;;;;15.47;100.00;100274.19;695658;28;1202;-68
2022/11/01 01:20:47;;;;;;;9.43;4.50;;;;;;;15.49;100.00;100280.25;695432;28;1201;-68
2022/11/01 01:21:08;;;;;;;10.38;4.60;;;;;;;15.54;100.00;100275.69;697912;28;1217;-69
2022/11/01 01:21:28;;;;;;;9.30;5.00;;;;;;;15.48;100.00;100270.66;698436;28;1217;-68
2022/11/01 01:21:48;;;;;;;8.82;4.82;;;;;;;15.43;100.00;100272.53;697690;28;4330;-68
2022/11/01 01:22:09;;;;;;;9.03;4.67;;;;;;;15.48;100.00;100263.59;700928;28;1260;-69
2022/11/01 01:22:30;;;;;;;10.18;4.70;;;;;;;15.44;100.00;100269.00;701227;28;1119;-68
2022/11/01 01:22:50;;;;;;;10.25;4.72;;;;;;;15.49;100.00;100262.69;700411;28;1335;-67
2022/11/01 01:23:10;;;;;;;10.40;4.47;;;;;;;15.54;100.00;100261.69;698136;28;1244;-67
2022/11/01 01:23:31;;;;;;;9.47;4.63;;;;;;;15.55;100.00;100261.63;698810;28;1334;-68
2022/11/01 01:23:53;;;;;;;9.73;4.88;;;;;;;15.56;100.00;100258.09;698302;28;1249;-68
2022/11/01 01:24:13;;;;;;;10.68;4.90;;;;;;;15.51;100.00;100265.28;697958;28;1174;-67
2022/11/01 01:24:34;;;;;;;8.55;4.60;;;;;;;15.46;100.00;100268.03;698260;28;1166;-67
2022/11/01 01:24:54;;;;;;;8.60;4.53;;;;;;;15.41;100.00;100269.97;697493;28;4329;-68
2022/11/01 01:25:15;;;;;;;10.57;4.63;;;;;;;15.38;100.00;100272.72;697067;28;1351;-67
2022/11/01 01:25:39;;;;;;;10.70;4.90;;;;;;;15.34;100.00;100273.72;698430;28;1522;-67
2022/11/01 01:26:06;;;;;;;9.38;4.88;;;;;;;15.50;100.00;100267.03;698217;28;1226;-68
2022/11/01 01:26:27;;;;;;;11.18;4.75;;;;;;;15.49;100.00;100272.34;696866;28;1213;-68
2022/11/01 01:26:48;;;;;;;9.80;4.50;;;;;;;15.50;100.00;100266.16;695255;28;1298;-67
2022/11/01 01:27:08;;;;;;;10.75;5.03;;;;;;;15.52;100.00;100272.28;695077;28;1344;-67
2022/11/01 01:27:28;;;;;;;9.33;4.47;;;;;;;15.50;100.00;100274.06;695675;28;1372;-67
2022/11/01 01:27:49;;;;;;;8.87;4.70;;;;;;;15.46;100.00;100270.66;695102;28;4400;-68
2022/11/01 01:28:09;;;;;;;8.10;4.57;;;;;;;15.44;100.00;100274.28;695674;28;1566;-67
2022/11/01 01:28:30;;;;;;;9.43;4.68;;;;;;;15.46;100.00;100267.19;698368;28;1340;-68
2022/11/01 01:28:52;;;;;;;7.70;4.37;;;;;;;15.44;100.00;100264.59;698554;28;1276;-68
2022/11/01 01:29:15;;;;;;;8.52;5.00;;;;;;;15.47;100.00;100261.00;697311;28;962;-67
2022/11/01 01:29:40;;;;;;;10.68;4.85;;;;;;;15.42;100.00;100265.56;698490;28;1403;-68
2022/11/01 01:30:00;;;;;;;9.20;4.70;;;;;;;15.40;100.00;100262.13;698220;28;1185;-67
2022/11/01 01:30:21;;;;;;;8.37;4.80;;;;;;;15.40;100.00;100262.13;695232;28;1183;-68
2022/11/01 01:30:41;;;;;;;9.15;4.88;;;;;;;15.39;100.00;100257.75;694909;28;4568;-69
2022/11/01 01:31:07;;;;;;;8.10;4.67;;;;;;;15.41;100.00;100258.56;692862;28;1570;-67
2022/11/01 01:31:27;;;;;;;8.13;4.47;;;;;;;15.47;100.00;100261.84;694060;28;1257;-67
2022/11/01 01:31:49;;;;;;;10.63;4.73;;;;;;;15.58;100.00;100258.88;695660;28;1301;-67
2022/11/01 01:32:20;;;;;;;10.43;4.63;;;;;;;15.55;100.00;100260.75;696276;28;1269;-67
2022/11/01 01:32:40;;;;;;;11.57;4.45;;;;;;;15.58;100.00;100261.53;695109;28;1433;-67
2022/11/01 01:33:01;;;;;;;10.48;4.43;;;;;;;15.57;100.00;100253.66;697924;28;1340;-67
2022/11/01 01:33:21;;;;;;;9.87;4.80;;;;;;;15.54;100.00;100261.69;696860;28;1977;-67
2022/11/01 01:33:42;;;;;;;8.13;4.70;;;;;;;15.56;100.00;100262.47;694954;28;4308;-68
2022/11/01 01:34:02;;;;;;;8.97;4.87;;;;;;;15.54;100.00;100256.41;695504;28;1451;-67
2022/11/01 01:34:23;;;;;;;10.87;4.70;;;;;;;15.66;100.00;100254.25;695396;28;1451;-66
2022/11/01 01:34:43;;;;;;;11.10;4.60;;;;;;;15.67;100.00;100255.09;695441;28;1450;-66
2022/11/01 01:35:04;;;;;;;11.03;4.90;;;;;;;15.69;100.00;100258.56;694342;28;1284;-67
2022/11/01 01:35:24;;;;;;;10.88;4.50;;;;;;;15.65;100.00;100257.78;694906;28;1177;-67
2022/11/01 01:35:45;;;;;;;8.60;4.40;;;;;;;15.62;100.00;100251.75;697170;28;1271;-67
2022/11/01 01:36:05;;;;;;;8.83;4.47;;;;;;;15.57;100.00;100259.78;697578;28;1269;-67
2022/11/01 01:36:26;;;;;;;8.85;4.43;;;;;;;15.54;100.00;100259.91;697367;28;1156;-67
2022/11/01 01:36:46;;;;;;;7.80;4.53;;;;;;;15.51;100.00;100260.00;699501;28;4399;-67
2022/11/01 01:37:08;;;;;;;10.75;4.75;;;;;;;15.48;100.00;100257.47;700636;28;1344;-68